EGPH Airport Information

Runway Information
Runway 06 Length 8400 ft width 150 ft
Elevation 110 ft Threshold 700 ft Heading 59
Runway 24 Length 8400 ft Width 150 ft
Elevation 100 ft Threshold 700 ft Heading 239
Runway 08 Length 2621 ft width 150 ft
Elevation 100 ft Threshold 0 ft Heading 70
Runway 26 Length 2621 ft Width 150 ft
Elevation 110 ft Threshold 0 ft Heading 250
Runway 12 Length 5730 ft width 150 ft
Elevation 99 ft Threshold 0 ft Heading 119
Runway 30 Length 5730 ft Width 150 ft
Elevation 134 ft Threshold 204 ft Heading 299
Airport Frequencies
Type APP Name APP Frequency 121.2 MHZ
Type ATIS Name ATIS Frequency 131.35 MHZ
Type GND Name GND Frequency 121.75 MHZ
Type TWR Name TWR Frequency 118.7 MHZ
Airport Navaids
Type NDB Name Edinburgh Frequency 341 KHZ
Type NDB Name Edinburgh Frequency 368 KHZ
Airport Weather Information & NOTAM
ADDS - METARS form results

(2019 UTC 16 July 2018)
 
METAR text: EGPH 161950Z 28004KT 250V340 CAVOK 19/09 Q1011
Conditions at: EGPH (EDINBURGH AIRPOR, GB) observed 1950 UTC 16 July 2018
Temperature: 19.0°C (66°F)
Dewpoint: 9.0°C (48°F) [RH = 52%]
Pressure (altimeter): 29.85 inches Hg (1011.0 mb)
Winds: from the W (280 degrees) at 5 MPH (4 knots; 2.1 m/s)
Visibility: 6 or more miles (10+ km)
Ceiling: ceiling and visibility are OK
Clouds: unknown
Weather: no significant weather observed at this time

METAR text: EGPH 161920Z 28006KT 250V310 9999 SCT049 19/08 Q1011
Conditions at: EGPH (EDINBURGH AIRPOR, GB) observed 1920 UTC 16 July 2018
Temperature: 19.0°C (66°F)
Dewpoint: 8.0°C (46°F) [RH = 49%]
Pressure (altimeter): 29.85 inches Hg (1011.0 mb)
Winds: from the W (280 degrees) at 7 MPH (6 knots; 3.1 m/s)
Visibility: 6 or more miles (10+ km)
Ceiling: at least 12,000 feet AGL
Clouds: scattered clouds at 4900 feet AGL
Weather: no significant weather observed at this time